Time;durP1;ratioP1;P1;durP2;ratioP2;P2;SDS_P1;SDS_P2;PMS_P1;PMS_P2;Temp;Humidity;BMP_temperature;BMP_pressure;BME280_temperature;BME280_humidity;BME280_pressure;Samples;Min_cycle;Max_cycle;Signal;HPM_P1;HPM_P2
2021/10/05 00:00:38;;;;;;;6.33;2.80;;;;;;;;;;5034719;28;20415;-77
2021/10/05 00:03:05;;;;;;;3.27;2.57;;;;;;;;;;5035001;28;20709;-77
2021/10/05 00:05:31;;;;;;;4.90;3.33;;;;;;;;;;5034441;28;20468;-78
2021/10/05 00:08:25;;;;;;;6.60;3.23;;;12.80;1.00;;;;;;5048541;28;20426;-78
2021/10/05 00:10:56;;;;;;;3.80;2.83;;;;;;;;;;5061449;28;20421;-76
2021/10/05 00:13:22;;;;;;;5.23;2.50;;;12.90;1.00;;;;;;5073344;28;20874;-75
2021/10/05 00:15:50;;;;;;;6.83;3.50;;;;;;;;;;5070474;28;20398;-75
2021/10/05 00:18:20;;;;;;;4.40;3.43;;;;;;;;;;5034610;28;20415;-76
2021/10/05 00:20:50;;;;;;;7.30;3.03;;;;;;;;;;5044174;28;20411;-76
2021/10/05 00:23:26;;;;;;;5.60;3.30;;;;;;;;;;5034739;28;20419;-75
2021/10/05 00:25:52;;;;;;;6.43;3.70;;;;;;;;;;5035989;28;20462;-75
2021/10/05 00:28:26;;;;;;;2.80;2.57;;;;;;;;;;5044986;28;20407;-75
2021/10/05 00:30:52;;;;;;;4.07;3.60;;;12.90;1.00;;;;;;5047594;28;20429;-75
2021/10/05 00:33:18;;;;;;;4.63;3.23;;;;;;;;;;5054286;28;20770;-76
2021/10/05 00:35:44;;;;;;;3.37;3.07;;;;;;;;;;5034789;28;20176;-76
2021/10/05 00:38:14;;;;;;;7.93;3.57;;;;;;;;;;5037321;28;20389;-75
2021/10/05 00:41:07;;;;;;;5.07;3.63;;;;;;;;;;5073502;28;20471;-77
2021/10/05 00:43:38;;;;;;;7.47;3.40;;;;;;;;;;5070810;28;20411;-77
2021/10/05 00:46:15;;;;;;;4.33;3.33;;;;;;;;;;5033850;28;20425;-77
2021/10/05 00:49:07;;;;;;;7.03;3.17;;;13.00;1.00;;;;;;5034784;28;20401;-77
2021/10/05 00:51:44;;;;;;;5.43;2.77;;;;;;;;;;5033965;28;20400;-77
2021/10/05 00:54:49;;;;;;;3.20;2.90;;;12.90;1.00;;;;;;5033814;28;20403;-77
2021/10/05 00:57:20;;;;;;;4.30;2.63;;;;;;;;;;5032945;28;20423;-77
2021/10/05 01:00:05;;;;;;;6.20;3.30;;;12.90;1.00;;;;;;5047416;28;20417;-77
2021/10/05 01:02:38;;;;;;;5.37;3.40;;;;;;;;;;5053684;28;20418;-77
2021/10/05 01:05:08;;;;;;;6.20;3.33;;;;;;;;;;5053857;28;20453;-77
2021/10/05 01:07:34;;;;;;;3.30;2.30;;;;;;;;;;5037647;28;20419;-77
2021/10/05 01:10:03;;;;;;;6.53;3.87;;;;;;;;;;5045294;28;20414;-77
2021/10/05 01:12:32;;;;;;;5.27;3.20;;;;;;;;;;5044962;28;20802;-77
2021/10/05 01:14:58;;;;;;;4.30;2.97;;;;;;;;;;5042020;28;20947;-77
2021/10/05 01:17:24;;;;;;;4.57;2.90;;;;;;;;;;5053017;28;20398;-77
2021/10/05 01:19:50;;;;;;;7.73;3.77;;;;;;;;;;5051488;28;20406;-77
2021/10/05 01:22:16;;;;;;;6.43;3.23;;;;;;;;;;5052681;28;20437;-77
2021/10/05 01:24:44;;;;;;;4.13;3.20;;;;;;;;;;5058237;28;20461;-75
2021/10/05 01:27:14;;;;;;;4.67;3.03;;;;;;;;;;5056337;28;20897;-76
2021/10/05 01:29:44;;;;;;;5.70;3.10;;;;;;;;;;5039038;28;20421;-75
2021/10/05 01:32:10;;;;;;;3.90;2.93;;;;;;;;;;5037975;28;20423;-75
2021/10/05 01:34:36;;;;;;;3.60;3.17;;;;;;;;;;5042115;28;20397;-75
2021/10/05 01:37:25;;;;;;;6.83;3.60;;;13.00;1.00;;;;;;5057384;28;20394;-75
2021/10/05 01:39:56;;;;;;;5.70;3.47;;;;;;;;;;5053658;28;20418;-76
2021/10/05 01:42:26;;;;;;;7.43;2.90;;;;;;;;;;5049421;28;20418;-75
2021/10/05 01:44:56;;;;;;;4.97;3.33;;;;;;;;;;5053385;28;20953;-76
2021/10/05 01:47:22;;;;;;;8.33;4.00;;;;;;;;;;5037456;28;20460;-76
2021/10/05 01:49:56;;;;;;;10.30;3.70;;;;;;;;;;5054646;28;20544;-76
2021/10/05 01:52:26;;;;;;;4.43;3.40;;;;;;;;;;5037713;28;20406;-75
2021/10/05 01:54:56;;;;;;;6.37;3.10;;;;;;;;;;5039154;28;20895;-76
2021/10/05 01:57:26;;;;;;;8.47;3.20;;;;;;;;;;5057501;28;20398;-75
2021/10/05 01:59:56;;;;;;;3.63;3.33;;;;;;;;;;5055583;28;20425;-75
2021/10/05 02:02:22;;;;;;;8.57;3.80;;;;;;;;;;5055025;28;20431;-76
2021/10/05 02:04:48;;;;;;;5.63;3.53;;;;;;;;;;5038163;28;20532;-75
2021/10/05 02:07:43;;;;;;;6.40;4.00;;;13.00;1.00;;;;;;5056835;28;20533;-75
2021/10/05 02:10:09;;;;;;;3.60;3.17;;;;;;;;;;5037272;28;20395;-76
2021/10/05 02:12:36;;;;;;;4.60;3.40;;;;;;;;;;5037491;28;20422;-76
2021/10/05 02:15:02;;;;;;;6.23;3.67;;;;;;;;;;5037981;28;20454;-76
2021/10/05 02:17:28;;;;;;;3.70;3.23;;;;;;;;;;5039997;28;20413;-76
2021/10/05 02:19:54;;;;;;;6.43;3.70;;;;;;;;;;5056228;28;20750;-76
2021/10/05 02:22:20;;;;;;;8.10;3.53;;;13.00;1.00;;;;;;5039667;28;20762;-76
2021/10/05 02:24:47;;;;;;;4.70;3.27;;;;;;;;;;5047618;28;20454;-75
2021/10/05 02:27:21;;;;;;;3.70;3.37;;;13.00;1.00;;;;;;5039424;28;20184;-77
2021/10/05 02:29:50;;;;;;;8.13;4.10;;;;;;;;;;5036401;28;20812;-77
2021/10/05 02:35:38;;;;;;;11.50;4.03;;;;;;;;;;5041837;28;20564;-77
2021/10/05 02:38:04;;;;;;;3.90;3.50;;;;;;;;;;5038586;28;20480;-77
2021/10/05 02:40:30;;;;;;;4.27;3.37;;;;;;;;;;5036650;28;20848;-77
2021/10/05 02:42:57;;;;;;;7.17;3.77;;;;;;;;;;5048029;28;20415;-77
2021/10/05 02:45:26;;;;;;;7.00;4.10;;;;;;;;;;5056441;28;20800;-77
2021/10/05 02:48:02;;;;;;;4.87;3.13;;;;;;;;;;5055127;28;20417;-77
2021/10/05 02:50:32;;;;;;;14.77;3.53;;;;;;;;;;5056154;28;20361;-77
2021/10/05 02:52:58;;;;;;;3.83;2.77;;;;;;;;;;5054456;28;20774;-77
2021/10/05 02:55:40;;;;;;;5.10;3.43;;;;;;;;;;5056090;28;20405;-77
2021/10/05 02:58:06;;;;;;;5.43;3.40;;;;;;;;;;5056091;28;20734;-77
2021/10/05 03:00:38;;;;;;;8.93;4.07;;;;;;;;;;5054752;28;20745;-77
2021/10/05 03:03:08;;;;;;;10.37;4.03;;;;;;;;;;5047904;28;20820;-77
2021/10/05 03:05:34;;;;;;;4.77;3.80;;;;;;;;;;5037022;28;20545;-77
2021/10/05 03:08:08;;;;;;;8.67;4.30;;;;;;;;;;5055562;28;20809;-77
2021/10/05 03:10:35;;;;;;;7.77;3.90;;;;;;;;;;5047017;28;20415;-75
2021/10/05 03:13:20;;;;;;;3.20;2.90;;;;;;;;;;5038799;28;20453;-77
2021/10/05 03:15:56;;;;;;;6.23;3.57;;;;;;;;;;5055331;28;20394;-77
2021/10/05 03:18:41;;;;;;;9.90;3.60;;;;;;;;;;5055524;28;20403;-77
2021/10/05 03:21:07;;;;;;;14.30;3.67;;;;;;;;;;5055385;28;20417;-77
2021/10/05 03:23:50;;;;;;;3.60;3.30;;;;;;;;;;5053753;28;20437;-77
2021/10/05 03:26:20;;;;;;;3.30;3.00;;;;;;;;;;5055609;28;20513;-77
2021/10/05 03:28:46;;;;;;;4.80;3.70;;;;;;;;;;5055436;28;20865;-77
2021/10/05 03:31:26;;;;;;;6.20;3.50;;;;;;;;;;5055231;28;20393;-77
2021/10/05 03:34:18;;;;;;;6.17;3.47;;;;;;;;;;5042681;28;20438;-78
2021/10/05 03:36:44;;;;;;;4.30;3.27;;;;;;;;;;5051598;28;20404;-77
2021/10/05 03:39:10;;;;;;;5.30;3.40;;;;;;;;;;5035530;28;20402;-78
2021/10/05 03:41:44;;;;;;;4.70;3.43;;;;;;;;;;5035215;28;20391;-76
2021/10/05 03:44:14;;;;;;;5.30;3.10;;;;;;;;;;5034405;28;20450;-76
2021/10/05 03:46:44;;;;;;;4.50;3.20;;;;;;;;;;5040569;28;20929;-75
2021/10/05 03:49:20;;;;;;;4.87;3.40;;;;;;;;;;5054894;28;20414;-75
2021/10/05 03:51:47;;;;;;;5.40;3.20;;;;;;;;;;5057636;28;20470;-75
2021/10/05 03:54:13;;;;;;;20.33;5.10;;;13.00;1.00;;;;;;5062527;28;20446;-75
2021/10/05 04:00:31;;;;;;;5.93;2.60;;;12.90;1.00;;;;;;5034777;28;20438;-83
2021/10/05 04:03:26;;;;;;;3.70;3.00;;;12.90;1.00;;;;;;5034736;28;20395;-80
2021/10/05 04:05:52;;;;;;;14.93;3.60;;;;;;;;;;5038588;28;20482;-80
2021/10/05 04:08:37;;;;;;;6.50;3.67;;;12.90;1.00;;;;;;5033815;28;20524;-80
2021/10/05 04:11:20;;;;;;;4.60;3.40;;;;;;;;;;5038130;28;20439;-80
2021/10/05 04:13:46;;;;;;;7.07;3.60;;;;;;;;;;5034559;28;20833;-75
2021/10/05 04:16:31;;;;;;;7.60;3.70;;;12.90;1.00;;;;;;5034740;28;20423;-75
2021/10/05 04:18:57;;;;;;;8.80;3.80;;;;;;;;;;5048253;28;20418;-75
2021/10/05 04:21:27;;;;;;;88.37;9.40;;;;;;;;;;5034726;28;20517;-75
2021/10/05 04:23:56;;;;;;;16.80;4.07;;;;;;;;;;5044949;28;20970;-75
2021/10/05 04:26:38;;;;;;;6.00;3.30;;;;;;;;;;5046017;28;20465;-77
2021/10/05 04:29:37;;;;;;;3.77;3.20;;;;;;;;;;5043556;28;20422;-76
2021/10/05 04:32:03;;;;;;;10.50;4.37;;;;;;;;;;5053919;28;20483;-76
2021/10/05 04:34:38;;;;;;;4.70;3.43;;;12.90;1.00;;;;;;5044759;28;20437;-76
2021/10/05 04:37:05;;;;;;;7.60;4.00;;;;;;;;;;5057828;28;20489;-75
2021/10/05 04:39:38;;;;;;;7.50;3.73;;;;;;;;;;5049622;28;20406;-75
2021/10/05 04:42:05;;;;;;;6.93;4.07;;;;;;;;;;5034560;28;20396;-75
2021/10/05 04:44:38;;;;;;;6.67;4.03;;;;;;;;;;5034112;28;20423;-74
2021/10/05 04:47:05;;;;;;;4.43;3.50;;;;;;;;;;5041052;28;20995;-79
2021/10/05 04:49:32;;;;;;;6.37;3.60;;;;;;;;;;5052256;28;20429;-80
2021/10/05 04:51:59;;;;;;;10.50;2.83;;;12.80;1.00;;;;;;5050954;28;20437;-76
2021/10/05 04:54:43;;;;;;;14.10;5.13;;;12.80;1.00;;;;;;5033769;28;20419;-75
2021/10/05 04:57:26;;;;;;;4.13;3.30;;;;;;;;;;5064294;28;20926;-77
2021/10/05 04:59:52;;;;;;;7.63;3.50;;;;;;;;;;5033577;28;20411;-77
2021/10/05 05:02:32;;;;;;;11.60;3.93;;;;;;;;;;5033740;28;20474;-77
2021/10/05 05:05:02;;;;;;;3.83;3.13;;;;;;;;;;5033662;28;20949;-78
2021/10/05 05:07:33;;;;;;;5.40;3.17;;;;;;;;;;5034425;28;20407;-77
2021/10/05 05:10:08;;;;;;;6.10;3.50;;;;;;;;;;5044810;28;20407;-78
2021/10/05 05:12:38;;;;;;;4.77;3.60;;;;;;;;;;5053845;28;20841;-77
2021/10/05 05:15:06;;;;;;;7.50;3.80;;;;;;;;;;5049638;28;20403;-77
2021/10/05 05:17:32;;;;;;;14.23;4.27;;;;;;;;;;5052531;28;20423;-77
2021/10/05 05:20:08;;;;;;;5.43;4.10;;;;;;;;;;5053820;28;20901;-77
2021/10/05 05:22:34;;;;;;;4.83;3.67;;;12.90;1.00;;;;;;5051886;28;20425;-77
2021/10/05 05:25:03;;;;;;;4.77;3.47;;;12.90;1.00;;;;;;5041121;28;20535;-77
2021/10/05 05:27:32;;;;;;;5.73;4.20;;;;;;;;;;5044486;28;20188;-75
2021/10/05 05:30:02;;;;;;;8.53;4.43;;;;;;;;;;5035449;28;20422;-76
2021/10/05 05:32:28;;;;;;;4.70;2.97;;;;;;;;;;5040956;28;20433;-76
2021/10/05 05:35:08;;;;;;;7.00;3.93;;;;;;;;;;5050950;28;20434;-75
2021/10/05 05:37:34;;;;;;;5.00;3.70;;;;;;;;;;5033987;28;20506;-75
2021/10/05 05:40:08;;;;;;;13.00;4.73;;;;;;;;;;5033356;28;20492;-75
2021/10/05 05:42:34;;;;;;;6.60;4.20;;;;;;;;;;5033667;28;20452;-77
2021/10/05 05:45:08;;;;;;;4.10;3.70;;;;;;;;;;5040042;28;20580;-78
2021/10/05 05:47:36;;;;;;;12.33;4.43;;;;;;;;;;5049792;28;21301;-77
2021/10/05 05:50:06;;;;;;;7.03;3.80;;;13.00;1.00;;;;;;5060208;28;20659;-78
2021/10/05 05:52:33;;;;;;;7.80;2.47;;;;;;;;;;5059329;28;20750;-78
2021/10/05 05:55:08;;;;;;;7.97;4.87;;;;;;;;;;5049900;28;20540;-78
2021/10/05 05:57:38;;;;;;;8.33;4.80;;;;;;;;;;5053246;28;20405;-77
2021/10/05 06:00:08;;;;;;;6.07;4.33;;;;;;;;;;5052851;28;21007;-77
2021/10/05 06:02:44;;;;;;;10.50;4.60;;;;;;;;;;5051728;28;20456;-77
2021/10/05 06:05:11;;;;;;;5.57;4.23;;;;;;;;;;5052841;28;20600;-77
2021/10/05 06:07:37;;;;;;;7.03;4.57;;;;;;;;;;5048795;28;20418;-77
2021/10/05 06:10:03;;;;;;;8.23;4.90;;;;;;;;;;5054309;28;20762;-77
2021/10/05 06:12:38;;;;;;;6.80;4.53;;;;;;;;;;5056177;28;20757;-76
2021/10/05 06:15:14;;;;;;;6.40;3.93;;;;;;;;;;5039990;28;20418;-76
2021/10/05 06:17:43;;;;;;;11.53;5.17;;;;;;;;;;5042227;28;20425;-76
2021/10/05 06:20:14;;;;;;;9.30;4.77;;;;;;;;;;5053173;28;20425;-76
2021/10/05 06:22:41;;;;;;;7.40;5.10;;;13.40;1.00;;;;;;5049356;28;20431;-76
2021/10/05 06:25:09;;;;;;;5.67;4.40;;;13.50;1.00;;;;;;5036005;28;20973;-75
2021/10/05 06:27:38;;;;;;;13.80;5.33;;;;;;;;;;5038816;28;20415;-76
2021/10/05 06:30:09;;;;;;;7.37;5.10;;;13.60;1.00;;;;;;5036393;28;21118;-76
2021/10/05 06:32:38;;;;;;;6.90;4.90;;;13.70;1.00;;;;;;5037034;28;20481;-76
2021/10/05 06:35:05;;;;;;;7.73;5.20;;;13.70;1.00;;;;;;5042558;28;20437;-76
2021/10/05 06:37:38;;;;;;;8.00;5.30;;;;;;;;;;5038585;28;20408;-76
2021/10/05 06:40:06;;;;;;;8.43;4.93;;;13.80;1.00;;;;;;5036301;28;20400;-76
2021/10/05 06:42:38;;;;;;;6.33;5.13;;;;;;;;;;5036471;28;20400;-76
2021/10/05 06:45:09;;;;;;;8.73;5.30;;;;;;;;;;5036186;28;20938;-76
2021/10/05 06:47:38;;;;;;;7.30;4.97;;;;;;;;;;5036390;28;20486;-76
2021/10/05 06:50:09;;;;;;;7.70;5.07;;;14.10;1.00;;;;;;5036300;28;20374;-75
2021/10/05 06:52:44;;;;;;;11.00;5.03;;;;;;;;;;5047941;28;20433;-75
2021/10/05 06:55:11;;;;;;;7.27;4.47;;;14.00;1.00;;;;;;5044263;28;20426;-75
2021/10/05 06:57:37;;;;;;;5.33;3.80;;;;;;;;;;5056242;28;20818;-76
2021/10/05 07:00:11;;;;;;;3.27;3.00;;;13.90;1.00;;;;;;5047604;28;20414;-77
2021/10/05 07:02:38;;;;;;;8.30;3.47;;;;;;;;;;5050893;28;20422;-78
2021/10/05 07:05:25;;;;;;;8.03;3.07;;;14.00;1.00;;;;;;5055567;28;20523;-78
2021/10/05 07:08:09;;;;;;;2.60;2.33;;;14.20;1.00;;;;;;5055732;28;20390;-77
2021/10/05 07:10:36;;;;;;;4.30;3.30;;;;;;;;;;5055625;28;20394;-77
2021/10/05 07:13:08;;;;;;;3.83;2.77;;;14.30;1.00;;;;;;5054454;28;20402;-77
2021/10/05 07:15:34;;;;;;;4.00;2.77;;;;;;;;;;5055647;28;20398;-76
2021/10/05 07:18:00;;;;;;;2.57;2.30;;;;;;;;;;5054657;28;20461;-76
2021/10/05 07:20:29;;;;;;;4.67;2.70;;;14.50;1.00;;;;;;5055641;28;20365;-76
2021/10/05 07:22:54;;;;;;;3.13;2.37;;;14.60;1.00;;;;;;5055415;28;20426;-76
2021/10/05 07:25:30;;;;;;;6.40;2.70;;;14.60;1.00;;;;;;5055105;28;20445;-76
2021/10/05 07:28:14;;;;;;;7.40;2.70;;;;;;;;;;5044434;28;20636;-76
2021/10/05 07:30:46;;;;;;;2.83;2.53;;;;;;;;;;5054040;28;20934;-77
2021/10/05 07:33:15;;;;;;;2.73;2.47;;;14.80;1.00;;;;;;5054199;28;20422;-77
2021/10/05 07:35:44;;;;;;;2.70;2.37;;;;;;;;;;5054767;28;20463;-78
2021/10/05 07:38:10;;;;;;;2.80;2.40;;;;;;;;;;5055029;28;20414;-77
2021/10/05 07:40:36;;;;;;;5.17;2.90;;;;;;;;;;5054690;28;20373;-78
2021/10/05 07:43:06;;;;;;;6.23;2.17;;;;;;;;;;5054668;28;20430;-77
2021/10/05 07:45:33;;;;;;;7.90;2.90;;;15.60;1.00;;;;;;5044091;28;20450;-76
2021/10/05 07:47:59;;;;;;;4.87;2.30;;;;;;;;;;5051212;28;20411;-76
2021/10/05 07:50:25;;;;;;;5.37;2.50;;;;;;;;;;5044167;28;20402;-76
2021/10/05 07:52:51;;;;;;;11.40;2.63;;;;;;;;;;5034829;28;20498;-76
2021/10/05 07:55:17;;;;;;;2.80;2.10;;;;;;;;;;5037318;28;20390;-75
2021/10/05 07:57:43;;;;;;;2.77;2.33;;;;;;;;;;5033908;28;20868;-76
2021/10/05 08:00:10;;;;;;;5.77;3.03;;;;;;;;;;5034141;28;20396;-77
2021/10/05 08:02:36;;;;;;;12.40;3.27;;;;;;;;;;5044978;28;20481;-78
2021/10/05 08:05:04;;;;;;;4.43;3.23;;;15.70;1.00;;;;;;5037801;28;20553;-78
2021/10/05 08:07:30;;;;;;;11.60;3.50;;;;;;;;;;5033585;28;20725;-78
2021/10/05 08:09:57;;;;;;;4.80;3.13;;;15.70;1.00;;;;;;5043665;28;20415;-78
2021/10/05 08:12:24;;;;;;;4.50;2.57;;;15.70;1.00;;;;;;5036583;28;20431;-78
2021/10/05 08:14:51;;;;;;;6.40;3.50;;;15.70;1.00;;;;;;5034022;28;20430;-77
2021/10/05 08:17:17;;;;;;;5.83;3.37;;;;;;;;;;5033563;28;20402;-77
2021/10/05 08:19:44;;;;;;;5.70;3.20;;;;;;;;;;5032327;28;20490;-78
2021/10/05 08:22:10;;;;;;;3.57;2.90;;;;;;;;;;5041318;28;20392;-78
2021/10/05 08:24:37;;;;;;;5.53;3.13;;;;;;;;;;5053181;28;20989;-78
2021/10/05 08:27:05;;;;;;;6.30;3.20;;;;;;;;;;5053371;28;20546;-78
2021/10/05 08:29:32;;;;;;;4.47;3.30;;;15.90;1.00;;;;;;5053520;28;20390;-77
2021/10/05 08:31:58;;;;;;;4.10;3.10;;;;;;;;;;5053038;28;20467;-77
2021/10/05 08:34:24;;;;;;;3.40;2.60;;;;;;;;;;5053307;28;20410;-77
2021/10/05 08:36:50;;;;;;;4.27;3.20;;;;;;;;;;5053005;28;20453;-77
2021/10/05 08:39:17;;;;;;;4.30;2.70;;;;;;;;;;5053270;28;20494;-77
2021/10/05 08:41:44;;;;;;;2.53;2.03;;;16.40;1.00;;;;;;5052854;28;20399;-77
2021/10/05 08:44:11;;;;;;;10.33;2.50;;;16.40;1.00;;;;;;5043940;28;20412;-77
2021/10/05 08:46:37;;;;;;;2.80;2.60;;;16.40;1.00;;;;;;5031766;28;20455;-77
2021/10/05 08:49:03;;;;;;;3.00;2.20;;;16.40;1.00;;;;;;5033013;28;20880;-77
2021/10/05 08:51:29;;;;;;;6.73;2.60;;;;;;;;;;5033069;28;20396;-77
2021/10/05 08:53:55;;;;;;;2.40;2.20;;;;;;;;;;5031919;28;20405;-77
2021/10/05 08:56:26;;;;;;;9.40;3.13;;;16.50;1.00;;;;;;5032106;28;20379;-77
2021/10/05 08:58:52;;;;;;;4.80;2.63;;;;;;;;;;5033244;28;20399;-77
2021/10/05 09:01:18;;;;;;;2.40;2.20;;;;;;;;;;5033118;28;20731;-78
2021/10/05 09:03:48;;;;;;;3.00;2.37;;;16.50;1.00;;;;;;5033059;28;20431;-78
2021/10/05 09:06:15;;;;;;;5.93;2.33;;;16.40;1.00;;;;;;5033139;28;20864;-78
2021/10/05 09:08:42;;;;;;;2.60;2.17;;;16.40;1.00;;;;;;5036346;28;20453;-78
2021/10/05 09:11:09;;;;;;;2.30;2.10;;;16.30;1.00;;;;;;5041636;28;20393;-78
2021/10/05 09:13:39;;;;;;;4.53;2.43;;;16.40;1.00;;;;;;5032752;28;20411;-78
2021/10/05 09:16:26;;;;;;;4.13;2.53;;;16.50;1.00;;;;;;5051547;28;20397;-76
2021/10/05 09:18:54;;;;;;;5.10;2.63;;;16.60;1.00;;;;;;5052478;28;20404;-76
2021/10/05 09:21:20;;;;;;;7.63;2.30;;;;;;;;;;5052653;28;20833;-76
2021/10/05 09:24:05;;;;;;;2.40;2.20;;;16.70;1.00;;;;;;5052614;28;20493;-76
2021/10/05 09:26:40;;;;;;;2.60;2.40;;;16.80;1.00;;;;;;5048374;28;20552;-76
2021/10/05 09:29:18;;;;;;;2.70;2.30;;;16.80;1.00;;;;;;5036865;28;20872;-77
2021/10/05 09:32:07;;;;;;;4.83;2.77;;;16.90;1.00;;;;;;5032530;28;20447;-77
2021/10/05 09:34:37;;;;;;;2.93;2.13;;;17.00;1.00;;;;;;5024329;28;20426;-77
2021/10/05 09:37:20;;;;;;;3.60;2.10;;;17.00;1.00;;;;;;5030124;28;20943;-77
2021/10/05 09:39:46;;;;;;;3.50;2.30;;;;;;;;;;5028883;28;20431;-77
2021/10/05 09:42:41;;;;;;;2.90;1.93;;;17.40;1.00;;;;;;5028965;28;20378;-78
2021/10/05 09:45:09;;;;;;;3.10;2.00;;;17.60;1.00;;;;;;4923216;29;20511;-76
2021/10/05 09:47:52;;;;;;;1.83;1.53;;;17.70;1.00;;;;;;4936941;29;20594;-76
2021/10/05 09:50:28;;;;;;;2.50;1.50;;;17.60;1.00;;;;;;4936910;29;20787;-78
2021/10/05 09:53:01;;;;;;;1.53;1.33;;;17.50;1.00;;;;;;4935414;29;20913;-78
2021/10/05 09:55:29;;;;;;;1.40;1.30;;;17.50;1.00;;;;;;4936822;29;20429;-78
2021/10/05 09:57:56;;;;;;;2.13;1.23;;;;;;;;;;4936411;29;20530;-78
2021/10/05 10:00:28;;;;;;;1.30;1.20;;;17.40;1.00;;;;;;4937159;29;20390;-76
2021/10/05 10:02:54;;;;;;;5.10;1.07;;;;;;;;;;4936649;29;20429;-76
2021/10/05 10:05:25;;;;;;;1.97;1.43;;;17.30;1.00;;;;;;4952439;29;21053;-76
2021/10/05 10:07:53;;;;;;;2.87;1.70;;;17.20;1.00;;;;;;4935096;29;20430;-76
2021/10/05 10:10:25;;;;;;;1.30;1.17;;;17.20;1.00;;;;;;4936486;29;20922;-76
2021/10/05 10:12:53;;;;;;;1.77;1.40;;;;;;;;;;4961133;28;20853;-76
2021/10/05 10:15:23;;;;;;;1.43;1.30;;;17.40;1.00;;;;;;4956076;29;20783;-77
2021/10/05 10:17:49;;;;;;;1.80;1.60;;;;;;;;;;4955846;29;20439;-77
2021/10/05 10:20:23;;;;;;;2.70;2.00;;;17.50;1.00;;;;;;4955652;29;20778;-77
2021/10/05 10:22:49;;;;;;;9.57;2.50;;;;;;;;;;5015676;28;20410;-77
2021/10/05 10:25:19;;;;;;;4.80;2.50;;;;;;;;;;5055629;28;20646;-77
2021/10/05 10:27:45;;;;;;;3.07;2.27;;;;;;;;;;5055642;28;20503;-77
2021/10/05 10:30:12;;;;;;;3.37;2.90;;;17.50;1.00;;;;;;5056153;28;20457;-77
2021/10/05 10:32:43;;;;;;;3.50;2.70;;;;;;;;;;5055943;28;20889;-77
2021/10/05 10:35:09;;;;;;;8.83;3.93;;;;;;;;;;5053825;28;20881;-77
2021/10/05 10:37:45;;;;;;;4.30;3.20;;;;;;;;;;5055383;28;20402;-77
2021/10/05 10:40:12;;;;;;;4.00;3.33;;;17.30;1.00;;;;;;5055566;28;20475;-77
2021/10/05 10:42:38;;;;;;;5.70;3.50;;;;;;;;;;5055387;28;20913;-79
2021/10/05 10:45:16;;;;;;;11.40;3.13;;;17.40;1.00;;;;;;5038805;28;20504;-77
2021/10/05 10:47:43;;;;;;;8.03;3.30;;;;;;;;;;5041963;28;20423;-77
2021/10/05 10:50:11;;;;;;;6.73;3.30;;;17.70;1.00;;;;;;5055149;28;20436;-77
2021/10/05 10:52:42;;;;;;;6.30;4.30;;;;;;;;;;5039223;28;20425;-77
2021/10/05 10:55:09;;;;;;;8.40;4.93;;;17.50;1.00;;;;;;5054831;28;20396;-77
2021/10/05 10:57:35;;;;;;;8.77;5.43;;;;;;;;;;5053737;28;20497;-77
2021/10/05 11:00:14;;;;;;;27.17;5.80;;;;;;;;;;5055565;28;20837;-76
2021/10/05 11:02:54;;;;;;;8.40;4.90;;;17.40;1.00;;;;;;5055162;28;20418;-76
2021/10/05 11:05:23;;;;;;;15.93;5.83;;;;;;;;;;5054944;28;20491;-76
2021/10/05 11:07:50;;;;;;;7.43;5.43;;;;;;;;;;5042027;28;20399;-76
2021/10/05 11:10:17;;;;;;;8.77;5.50;;;;;;;;;;5054849;28;20453;-76
2021/10/05 11:12:54;;;;;;;8.57;5.73;;;17.70;1.00;;;;;;5047402;28;20432;-76
2021/10/05 11:15:50;;;;;;;10.37;6.00;;;17.70;1.00;;;;;;5053843;28;20903;-77
2021/10/05 11:18:18;;;;;;;7.03;5.40;;;17.70;1.00;;;;;;5000067;28;20757;-77
2021/10/05 11:20:46;;;;;;;8.23;5.67;;;17.70;1.00;;;;;;5012811;28;20410;-77
2021/10/05 11:23:13;;;;;;;7.73;5.90;;;17.80;1.00;;;;;;5012493;28;20425;-77
2021/10/05 11:25:52;;;;;;;12.77;5.73;;;17.90;1.00;;;;;;5012713;28;20612;-77
2021/10/05 11:28:24;;;;;;;8.57;5.70;;;17.90;1.00;;;;;;5012590;28;20505;-77
2021/10/05 11:30:56;;;;;;;14.40;6.87;;;17.90;1.00;;;;;;5004621;28;20442;-76
2021/10/05 11:33:40;;;;;;;9.20;5.80;;;17.80;1.00;;;;;;5011442;28;20425;-77
2021/10/05 11:36:18;;;;;;;12.00;6.90;;;17.70;1.00;;;;;;5007767;28;20430;-76
2021/10/05 11:38:47;;;;;;;12.50;7.00;;;17.60;1.00;;;;;;5018197;28;20437;-76
2021/10/05 11:41:13;;;;;;;10.20;7.30;;;;;;;;;;5005912;28;20791;-76
2021/10/05 11:44:16;;;;;;;12.57;7.40;;;17.60;1.00;;;;;;5013213;28;20440;-76
2021/10/05 11:47:05;;;;;;;12.30;6.63;;;17.70;1.00;;;;;;5013535;28;20552;-80
2021/10/05 11:49:41;;;;;;;10.10;6.30;;;;;;;;;;5012221;28;20415;-78
2021/10/05 11:52:19;;;;;;;7.63;5.30;;;18.10;1.00;;;;;;4996284;28;20922;-79
2021/10/05 11:55:04;;;;;;;11.20;5.23;;;18.20;1.00;;;;;;5024728;28;20404;-79
2021/10/05 11:57:37;;;;;;;6.43;4.40;;;18.50;1.00;;;;;;5034744;28;20423;-79
2021/10/05 12:00:20;;;;;;;8.70;5.17;;;;;;;;;;5042481;28;20407;-79
2021/10/05 12:05:49;;;;;;;26.47;5.77;;;19.00;1.00;;;;;;5041581;28;20997;-79
2021/10/05 12:08:43;;;;;;;4.87;3.23;;;;;;;;;;5054075;28;20418;-79
2021/10/05 12:11:10;;;;;;;18.93;4.20;;;;;;;;;;5034924;28;20261;-79
2021/10/05 12:14:04;;;;;;;5.90;3.30;;;19.20;1.00;;;;;;5045364;28;20439;-80
2021/10/05 12:16:40;;;;;;;4.93;2.97;;;19.20;1.00;;;;;;5055109;28;20397;-79
2021/10/05 12:19:08;;;;;;;3.17;2.83;;;;;;;;;;5054215;28;20416;-79
2021/10/05 12:22:13;;;;;;;11.47;3.17;;;19.30;1.00;;;;;;5055610;28;20983;-79
2021/10/05 12:24:46;;;;;;;13.23;3.23;;;19.50;1.00;;;;;;5039849;28;20431;-74
2021/10/05 12:27:18;;;;;;;3.13;2.07;;;19.80;1.00;;;;;;5034265;28;20644;-80
2021/10/05 12:30:08;;;;;;;4.93;2.23;;;19.90;1.00;;;;;;5058994;28;20420;-79
2021/10/05 12:32:35;;;;;;;12.00;2.33;;;;;;;;;;5042814;28;20433;-80
2021/10/05 12:35:36;;;;;;;2.30;1.80;;;20.00;1.00;;;;;;5036766;28;20781;-79
2021/10/05 12:38:14;;;;;;;8.20;1.73;;;19.80;1.00;;;;;;5031432;28;20943;-80
2021/10/05 12:40:45;;;;;;;5.90;1.43;;;19.60;1.00;;;;;;5031736;28;20416;-79
2021/10/05 12:43:16;;;;;;;2.53;1.67;;;19.50;1.00;;;;;;5032105;28;20441;-79
2021/10/05 12:46:16;;;;;;;6.70;1.93;;;19.50;1.00;;;;;;5031801;28;20528;-79
2021/10/05 12:48:47;;;;;;;2.20;1.30;;;19.60;1.00;;;;;;5031889;28;20420;-74
2021/10/05 12:51:14;;;;;;;11.30;2.50;;;;;;;;;;5014691;28;20416;-75
2021/10/05 12:54:00;;;;;;;5.03;1.47;;;19.50;1.00;;;;;;5031750;28;20822;-76
2021/10/05 12:56:27;;;;;;;1.63;1.20;;;;;;;;;;5031901;28;20384;-76
2021/10/05 12:58:53;;;;;;;4.03;1.40;;;19.40;1.00;;;;;;5031200;28;20515;-78
2021/10/05 13:01:20;;;;;;;2.90;1.37;;;;;;;;;;5032762;28;20505;-77
2021/10/05 13:03:56;;;;;;;2.50;1.60;;;;;;;;;;5022102;28;21055;-78
2021/10/05 13:06:26;;;;;;;1.23;1.03;;;;;;;;;;5015288;28;20494;-78
2021/10/05 13:08:56;;;;;;;3.33;1.30;;;;;;;;;;5028762;28;20979;-77
2021/10/05 13:11:27;;;;;;;3.07;1.20;;;;;;;;;;5029729;28;20371;-76
2021/10/05 13:14:14;;;;;;;1.53;1.43;;;19.90;1.00;;;;;;5017935;28;20405;-83
2021/10/05 13:20:02;;;;;;;8.23;1.50;;;;;;;;;;5071176;28;20444;-83
2021/10/05 13:22:39;;;;;;;1.23;1.10;;;;;;;;;;5080649;28;20397;-84
2021/10/05 13:31:48;;;;;;;2.10;1.30;;;19.50;1.00;;;;;;5060343;28;20479;-78
2021/10/05 13:34:32;;;;;;;1.83;1.00;;;;;;;;;;5050659;28;20434;-79
2021/10/05 13:37:26;;;;;;;4.30;1.17;;;19.20;1.00;;;;;;5038941;28;20183;-79
2021/10/05 13:40:09;;;;;;;1.30;1.20;;;;;;;;;;5048482;28;20436;-78
2021/10/05 13:42:36;;;;;;;1.10;1.10;;;19.40;1.00;;;;;;5059868;28;20786;-79
2021/10/05 13:45:14;;;;;;;0.90;0.90;;;;;;;;;;5047255;28;20964;-78
2021/10/05 13:47:44;;;;;;;2.63;0.80;;;;;;;;;;5039019;28;20410;-78
2021/10/05 13:50:14;;;;;;;4.73;1.30;;;;;;;;;;5048252;28;20515;-77
2021/10/05 13:52:45;;;;;;;1.80;1.40;;;19.20;1.00;;;;;;5060355;28;20402;-78
2021/10/05 13:55:21;;;;;;;15.33;2.23;;;;;;;;;;5054257;28;20468;-78
2021/10/05 13:57:50;;;;;;;2.50;1.10;;;;;;;;;;5060031;28;20815;-79
2021/10/05 14:00:32;;;;;;;1.57;1.10;;;;;;;;;;5059690;28;20812;-79
2021/10/05 14:02:58;;;;;;;1.43;1.00;;;;;;;;;;5060400;28;20397;-77
2021/10/05 14:05:32;;;;;;;3.70;1.30;;;;;;;;;;5058524;28;20515;-77
2021/10/05 14:08:02;;;;;;;1.50;1.00;;;;;;;;;;5058565;28;20544;-77
2021/10/05 14:10:29;;;;;;;1.33;1.10;;;;;;;;;;5059016;28;20561;-77
2021/10/05 14:12:55;;;;;;;2.10;1.00;;;;;;;;;;5039790;28;20373;-78
2021/10/05 14:15:26;;;;;;;1.77;0.90;;;;;;;;;;5040402;28;20427;-77
2021/10/05 14:17:56;;;;;;;0.73;0.73;;;;;;;;;;5040576;28;20906;-78
2021/10/05 14:20:38;;;;;;;5.33;1.13;;;;;;;;;;5040165;28;20495;-78
2021/10/05 14:23:04;;;;;;;1.27;0.87;;;;;;;;;;5044356;28;20418;-77
2021/10/05 14:25:30;;;;;;;3.80;1.00;;;;;;;;;;5059644;28;20502;-82
2021/10/05 14:27:57;;;;;;;3.23;0.80;;;;;;;;;;5059715;28;20866;-82
2021/10/05 14:30:26;;;;;;;5.63;1.00;;;;;;;;;;5056139;28;20391;-80
2021/10/05 14:32:52;;;;;;;4.87;0.90;;;;;;;;;;5048868;28;20435;-83
2021/10/05 14:35:19;;;;;;;8.43;1.23;;;;;;;;;;5075165;28;20448;-83
2021/10/05 14:37:45;;;;;;;1.10;0.60;;;;;;;;;;5076346;28;20390;-83
2021/10/05 14:40:44;;;;;;;0.53;0.50;;;;;;;;;;5070749;28;20420;-83
2021/10/05 14:43:10;;;;;;;0.80;0.73;;;;;;;;;;5056573;28;20390;-81
2021/10/05 14:45:45;;;;;;;2.60;0.60;;;;;;;;;;5056318;28;20431;-80
2021/10/05 14:48:12;;;;;;;5.00;0.70;;;;;;;;;;5059305;28;20404;-79
2021/10/05 14:50:38;;;;;;;2.53;0.70;;;;;;;;;;5074663;28;20413;-78